CST,Max TemperatureF,Mean TemperatureF,Min TemperatureF,Max Dew PointF,MeanDew PointF,Min DewpointF,Max Humidity, Mean Humidity, Min Humidity, Max Sea Level PressureIn, Mean Sea Level PressureIn, Min Sea Level PressureIn, Max VisibilityMiles, Mean VisibilityMiles, Min VisibilityMiles, Max Wind SpeedMPH, Mean Wind SpeedMPH, Max Gust SpeedMPH,PrecipitationIn, CloudCover, Events, WindDirDegrees
2012-1-1,59,51,42,54,27,13,86,55,24,30.44,30.24,29.87,10,10,10,31,14,43,0.00,0,,297
2012-1-2,43,37,30,14,7,1,41,30,18,30.53,30.47,30.42,10,10,10,29,13,39,0.00,0,,311
2012-1-3,39,29,19,21,12,5,69,48,27,30.60,30.47,30.28,10,10,10,13,5,16,0.00,0,,192
2012-1-4,54,42,30,32,26,21,76,57,38,30.29,30.21,30.13,10,10,10,20,8,23,0.00,0,,231
2012-1-5,61,46,30,35,29,25,82,54,25,30.27,30.16,30.02,10,10,10,17,7,22,0.00,0,,226
2012-1-6,66,53,39,54,44,31,86,65,43,30.04,29.96,29.88,10,10,9,20,11,24,0.00,3,,221
2012-1-7,58,52,46,54,41,28,96,66,35,30.16,30.03,29.93,10,7,0,22,10,26,0.01,5,Fog-Rain,1
2012-1-8,50,46,42,38,33,28,76,63,49,30.22,30.18,30.13,10,10,5,18,12,33,0.10,7,Rain,40
2012-1-9,53,47,40,40,36,34,76,65,54,30.25,30.17,30.11,10,10,8,13,5,45,0.00,5,,30
2012-1-10,53,47,40,45,38,30,93,71,48,30.12,29.87,29.66,10,7,1,20,11,24,0.85,6,Rain,33
2012-1-11,52,48,44,43,42,39,92,78,63,29.67,29.62,29.60,10,6,1,14,6,21,0.01,7,,284
2012-1-12,47,37,26,36,21,11,82,66,49,30.06,29.86,29.67,10,8,2,31,15,39,T,7,Rain-Snow,295
2012-1-13,40,32,24,16,12,8,68,48,27,30.22,30.15,30.05,10,10,10,18,8,24,0.00,1,,265
2012-1-14,55,39,22,28,23,16,81,56,30,30.34,30.16,30.04,10,10,10,26,9,35,0.00,0,,276
2012-1-15,51,38,24,34,28,22,81,62,42,30.47,30.33,30.17,10,10,10,16,7,22,0.00,0,,147
2012-1-16,68,57,45,56,48,35,78,64,50,30.15,30.00,29.88,10,10,10,33,21,44,0.00,7,,198
2012-1-17,67,49,31,59,42,17,78,60,42,30.35,30.01,29.82,10,10,8,29,15,38,0.01,3,Rain,279
2012-1-18,37,30,22,24,19,15,74,61,47,30.40,30.26,30.08,10,10,10,12,4,30,0.00,0,,64
2012-1-19,56,43,30,37,30,23,78,61,43,30.07,29.99,29.89,10,10,10,20,6,24,0.00,3,,144
2012-1-20,51,43,35,39,32,28,76,71,65,30.01,29.90,29.76,10,10,5,20,10,23,T,8,Rain,38
2012-1-21,40,36,32,36,28,25,89,80,70,30.16,30.07,29.91,10,9,5,15,10,21,0.00,8,,39
2012-1-22,67,51,35,61,46,32,96,89,82,30.04,29.79,29.56,10,3,0,31,11,46,0.87,7,Fog-Rain-Thunderstorm,160
2012-1-23,61,50,38,51,36,30,75,63,50,30.10,29.93,29.62,10,10,10,26,13,35,0.00,0,,252
2012-1-24,55,42,29,35,31,26,85,63,41,30.29,30.23,30.11,10,10,10,15,7,18,0.00,0,,60
2012-1-25,50,45,40,45,39,34,100,83,65,30.21,30.05,29.81,10,5,2,24,14,94,0.58,8,Rain,52
2012-1-26,46,44,41,43,41,37,93,88,82,29.87,29.80,29.72,10,5,0,20,5,25,0.31,8,Fog-Rain,330
2012-1-27,53,43,33,41,36,31,89,72,54,30.08,30.00,29.88,10,10,10,12,5,15,0.00,1,,206
2012-1-28,50,41,31,41,26,19,77,56,34,30.40,30.31,29.99,10,10,10,23,9,35,0.00,1,,301
2012-1-29,55,43,30,32,28,24,75,55,35,30.40,30.34,30.28,10,10,10,21,10,25,0.00,0,,229
2012-1-30,62,49,36,37,32,28,76,55,34,30.29,30.22,30.15,10,10,10,24,13,32,0.00,0,,204
2012-1-31,66,58,49,55,47,31,86,64,41,30.16,30.11,30.05,10,10,10,23,12,31,T,5,Rain,202